WAT5327 PHNL-KSFO
Flight info
| Callsign | WAT5327 |
|---|---|
| Flight time | N/A |
| Altitude | 37000 |
| Route | MKK5 KOLEA CLUTS R465 CORTT/N0452F390 R465 CINNY PIRAT3 |
| Aircraft | A319/M-SDE3FGHIRWY/LB1 |
Departure
| Time | 2026-05-07 00:03 |
|---|---|
| Airport | Daniel K. Inouye International Airport (PHNL) |
Arrival
| Time | N/A |
|---|---|
| Airport | San Francisco International Airport (KSFO) |
| Time | Latitude | Longitude | Altitude | Speed | Heading |
|---|---|---|---|---|---|
| 2026-05-06 23:51 | 21.32890 | -157.92390 | 12 ft | 0 kts | 355° |
| 2026-05-06 23:52 | 21.32883 | -157.92389 | 10 ft | 4 kts | 357° |
| 2026-05-06 23:53 | 21.32857 | -157.92390 | 12 ft | 4 kts | 3° |
| 2026-05-06 23:53 | 21.32830 | -157.92391 | 12 ft | 4 kts | 356° |
| 2026-05-06 23:53 | 21.32803 | -157.92387 | 10 ft | 4 kts | 342° |
| 2026-05-06 23:53 | 21.32780 | -157.92375 | 13 ft | 4 kts | 307° |
| 2026-05-06 23:54 | 21.32774 | -157.92359 | 11 ft | 1 kts | 269° |
| 2026-05-06 23:54 | 21.32774 | -157.92356 | 11 ft | 2 kts | 269° |
| 2026-05-06 23:58 | 21.32773 | -157.92361 | 13 ft | 1 kts | 251° |
| 2026-05-06 23:58 | 21.32758 | -157.92362 | 13 ft | 3 kts | 163° |
| 2026-05-06 23:58 | 21.32734 | -157.92346 | 12 ft | 4 kts | 150° |
| 2026-05-06 23:59 | 21.32711 | -157.92333 | 13 ft | 4 kts | 150° |
| 2026-05-06 23:59 | 21.32686 | -157.92319 | 14 ft | 4 kts | 156° |
| 2026-05-06 23:59 | 21.32649 | -157.92304 | 15 ft | 8 kts | 159° |
| 2026-05-06 23:59 | 21.32582 | -157.92269 | 16 ft | 14 kts | 152° |
| 2026-05-07 00:00 | 21.32477 | -157.92203 | 16 ft | 20 kts | 149° |
| 2026-05-07 00:00 | 21.32350 | -157.92123 | 18 ft | 22 kts | 150° |
| 2026-05-07 00:00 | 21.32219 | -157.92047 | 15 ft | 13 kts | 163° |
| 2026-05-07 00:00 | 21.32145 | -157.92106 | 14 ft | 15 kts | 233° |
| 2026-05-07 00:01 | 21.32073 | -157.92204 | 14 ft | 18 kts | 232° |
| 2026-05-07 00:01 | 21.31998 | -157.92317 | 14 ft | 20 kts | 232° |
| 2026-05-07 00:01 | 21.31920 | -157.92374 | 11 ft | 10 kts | 168° |
| 2026-05-07 00:01 | 21.31858 | -157.92325 | 10 ft | 10 kts | 115° |
| 2026-05-07 00:02 | 21.31879 | -157.92271 | 13 ft | 5 kts | 52° |
| 2026-05-07 00:02 | 21.31880 | -157.92269 | 13 ft | 0 kts | 52° |
| 2026-05-07 00:02 | 21.31983 | -157.92122 | 14 ft | 65 kts | 53° |
| 2026-05-07 00:02 | 21.32420 | -157.91512 | 10 ft | 140 kts | 52° |
| 2026-05-07 00:03 | 21.33118 | -157.90551 | 302 ft | 171 kts | 49° |
| 2026-05-07 00:03 | 21.33848 | -157.89563 | 1192 ft | 167 kts | 52° |
| 2026-05-07 00:03 | 21.34425 | -157.88484 | 2076 ft | 170 kts | 62° |
| 2026-05-07 00:03 | 21.34997 | -157.87301 | 2561 ft | 188 kts | 62° |
| 2026-05-07 00:04 | 21.35625 | -157.85989 | 2869 ft | 206 kts | 62° |
| 2026-05-07 00:04 | 21.36301 | -157.84574 | 3282 ft | 222 kts | 62° |
| 2026-05-07 00:04 | 21.37047 | -157.83018 | 3664 ft | 246 kts | 62° |
| 2026-05-07 00:04 | 21.37867 | -157.81312 | 4259 ft | 266 kts | 62° |
| 2026-05-07 00:05 | 21.38730 | -157.79518 | 5197 ft | 275 kts | 62° |
| 2026-05-07 00:05 | 21.39618 | -157.77670 | 6120 ft | 281 kts | 62° |
| 2026-05-07 00:05 | 21.40506 | -157.75811 | 6960 ft | 286 kts | 62° |
| 2026-05-07 00:05 | 21.41422 | -157.73893 | 7776 ft | 291 kts | 62° |
| 2026-05-07 00:06 | 21.42364 | -157.71917 | 8635 ft | 296 kts | 62° |
| 2026-05-07 00:06 | 21.43312 | -157.69933 | 9473 ft | 301 kts | 62° |
| 2026-05-07 00:06 | 21.44263 | -157.67941 | 10168 ft | 308 kts | 62° |
| 2026-05-07 00:06 | 21.45278 | -157.65820 | 10383 ft | 331 kts | 62° |
| 2026-05-07 00:07 | 21.46370 | -157.63545 | 10522 ft | 354 kts | 62° |
| 2026-05-07 00:07 | 21.47531 | -157.61123 | 10641 ft | 375 kts | 62° |
| 2026-05-07 00:07 | 21.48756 | -157.58567 | 10763 ft | 396 kts | 62° |
| 2026-05-07 00:07 | 21.50042 | -157.55868 | 10939 ft | 414 kts | 62° |
| 2026-05-07 00:08 | 21.51361 | -157.53093 | 11388 ft | 420 kts | 63° |
| 2026-05-07 00:08 | 21.52698 | -157.50284 | 11874 ft | 424 kts | 63° |
| 2026-05-07 00:08 | 21.54043 | -157.47454 | 12397 ft | 427 kts | 63° |
| 2026-05-07 00:08 | 21.55399 | -157.44598 | 12907 ft | 430 kts | 63° |
| 2026-05-07 00:09 | 21.56767 | -157.41719 | 13405 ft | 434 kts | 63° |
| 2026-05-07 00:09 | 21.58143 | -157.38824 | 13898 ft | 437 kts | 63° |
| 2026-05-07 00:09 | 21.59534 | -157.35904 | 14324 ft | 440 kts | 63° |
| 2026-05-07 00:09 | 21.60934 | -157.32963 | 14752 ft | 443 kts | 63° |
| 2026-05-07 00:10 | 21.62336 | -157.30013 | 15168 ft | 445 kts | 63° |
| 2026-05-07 00:10 | 21.63748 | -157.27044 | 15581 ft | 447 kts | 63° |
| 2026-05-07 00:10 | 21.65167 | -157.24060 | 15975 ft | 450 kts | 63° |
| 2026-05-07 00:10 | 21.66595 | -157.21052 | 16365 ft | 452 kts | 63° |
| 2026-05-07 00:11 | 21.68025 | -157.18036 | 16739 ft | 454 kts | 63° |
| 2026-05-07 00:11 | 21.69459 | -157.15000 | 17109 ft | 457 kts | 63° |
| 2026-05-07 00:11 | 21.70897 | -157.11949 | 17477 ft | 459 kts | 63° |
| 2026-05-07 00:11 | 21.72344 | -157.08879 | 17826 ft | 461 kts | 63° |
| 2026-05-07 00:12 | 21.73799 | -157.05791 | 18166 ft | 463 kts | 63° |
| 2026-05-07 00:12 | 21.75258 | -157.02700 | 18494 ft | 465 kts | 63° |
| 2026-05-07 00:12 | 21.76726 | -156.99591 | 18796 ft | 467 kts | 63° |
| 2026-05-07 00:12 | 21.78201 | -156.96466 | 19079 ft | 469 kts | 63° |
| 2026-05-07 00:13 | 21.79679 | -156.93332 | 19379 ft | 471 kts | 63° |
| 2026-05-07 00:13 | 21.81165 | -156.90182 | 19664 ft | 472 kts | 63° |
| 2026-05-07 00:13 | 21.82655 | -156.87028 | 19927 ft | 475 kts | 63° |
| 2026-05-07 00:13 | 21.84153 | -156.83853 | 20208 ft | 476 kts | 63° |
| 2026-05-07 00:14 | 21.85651 | -156.80669 | 20479 ft | 478 kts | 63° |
| 2026-05-07 00:14 | 21.87156 | -156.77465 | 20723 ft | 480 kts | 63° |
| 2026-05-07 00:14 | 21.88663 | -156.74251 | 20981 ft | 481 kts | 63° |
| 2026-05-07 00:14 | 21.90173 | -156.71028 | 21227 ft | 483 kts | 63° |
| 2026-05-07 00:15 | 21.91686 | -156.67795 | 21431 ft | 484 kts | 63° |
| 2026-05-07 00:15 | 21.93205 | -156.64549 | 21646 ft | 486 kts | 63° |
| 2026-05-07 00:15 | 21.94730 | -156.61294 | 21861 ft | 487 kts | 63° |
| 2026-05-07 00:15 | 21.96257 | -156.58038 | 22053 ft | 488 kts | 63° |
| 2026-05-07 00:16 | 21.97790 | -156.54769 | 22240 ft | 490 kts | 63° |
| 2026-05-07 00:16 | 21.99329 | -156.51483 | 22430 ft | 491 kts | 63° |
| 2026-05-07 00:16 | 22.00870 | -156.48190 | 22608 ft | 493 kts | 63° |
| 2026-05-07 00:16 | 22.02411 | -156.44891 | 22783 ft | 494 kts | 63° |
| 2026-05-07 00:17 | 22.03959 | -156.41573 | 22966 ft | 496 kts | 63° |
| 2026-05-07 00:17 | 22.05507 | -156.38247 | 23156 ft | 497 kts | 64° |
| 2026-05-07 00:17 | 22.07057 | -156.34914 | 23332 ft | 498 kts | 64° |
| 2026-05-07 00:17 | 22.08616 | -156.31565 | 23510 ft | 500 kts | 64° |
| 2026-05-07 00:18 | 22.10178 | -156.28214 | 23687 ft | 501 kts | 63° |
| 2026-05-07 00:18 | 22.11743 | -156.24862 | 23838 ft | 502 kts | 63° |
| 2026-05-07 00:18 | 22.13311 | -156.21498 | 24020 ft | 502 kts | 63° |
| 2026-05-07 00:18 | 22.14876 | -156.18131 | 24194 ft | 502 kts | 63° |
| 2026-05-07 00:19 | 22.16439 | -156.14756 | 24402 ft | 502 kts | 63° |
| 2026-05-07 00:19 | 22.17999 | -156.11385 | 24647 ft | 501 kts | 63° |
| 2026-05-07 00:19 | 22.19552 | -156.08027 | 24896 ft | 500 kts | 63° |
| 2026-05-07 00:19 | 22.21101 | -156.04673 | 25147 ft | 500 kts | 63° |
| 2026-05-07 00:20 | 22.22637 | -156.01355 | 25369 ft | 500 kts | 63° |
| 2026-05-07 00:20 | 22.24213 | -155.97964 | 25630 ft | 499 kts | 63° |
| 2026-05-07 00:20 | 22.25749 | -155.94649 | 25906 ft | 499 kts | 63° |
| 2026-05-07 00:20 | 22.27292 | -155.91304 | 26202 ft | 498 kts | 63° |
| 2026-05-07 00:21 | 22.28831 | -155.87963 | 26521 ft | 496 kts | 63° |
| 2026-05-07 00:21 | 22.30364 | -155.84629 | 26834 ft | 495 kts | 63° |
| 2026-05-07 00:21 | 22.31893 | -155.81302 | 27162 ft | 494 kts | 63° |
| 2026-05-07 00:21 | 22.33425 | -155.77976 | 27502 ft | 493 kts | 63° |
| 2026-05-07 00:22 | 22.34952 | -155.74668 | 27860 ft | 492 kts | 63° |
| 2026-05-07 00:22 | 22.36475 | -155.71366 | 28229 ft | 491 kts | 63° |
| 2026-05-07 00:22 | 22.37995 | -155.68066 | 28605 ft | 490 kts | 63° |
| 2026-05-07 00:22 | 22.39511 | -155.64773 | 28993 ft | 489 kts | 63° |
| 2026-05-07 00:23 | 22.41025 | -155.61485 | 29385 ft | 488 kts | 62° |
| 2026-05-07 00:23 | 22.42530 | -155.58214 | 29782 ft | 486 kts | 62° |
| 2026-05-07 00:23 | 22.44036 | -155.54934 | 30165 ft | 486 kts | 62° |
| 2026-05-07 00:23 | 22.45533 | -155.51660 | 30483 ft | 486 kts | 62° |
| 2026-05-07 00:24 | 22.47033 | -155.48381 | 30803 ft | 486 kts | 62° |
| 2026-05-07 00:24 | 22.48533 | -155.45112 | 31133 ft | 485 kts | 62° |
| 2026-05-07 00:24 | 22.50031 | -155.41850 | 31470 ft | 484 kts | 62° |
| 2026-05-07 00:24 | 22.51526 | -155.38586 | 31817 ft | 484 kts | 62° |
| 2026-05-07 00:25 | 22.53013 | -155.35329 | 32164 ft | 483 kts | 62° |
| 2026-05-07 00:25 | 22.54497 | -155.32070 | 32509 ft | 483 kts | 62° |
| 2026-05-07 00:25 | 22.55981 | -155.28808 | 32861 ft | 482 kts | 62° |
| 2026-05-07 00:25 | 22.57458 | -155.25558 | 33201 ft | 482 kts | 62° |
| 2026-05-07 00:26 | 22.59043 | -155.22364 | 33553 ft | 480 kts | 56° |
| 2026-05-07 00:26 | 22.60997 | -155.19456 | 33908 ft | 478 kts | 49° |
| 2026-05-07 00:26 | 22.63072 | -155.16648 | 34244 ft | 477 kts | 49° |
| 2026-05-07 00:26 | 22.65138 | -155.13836 | 34562 ft | 477 kts | 50° |
| 2026-05-07 00:27 | 22.67197 | -155.11016 | 34919 ft | 476 kts | 50° |
| 2026-05-07 00:27 | 22.69241 | -155.08208 | 35267 ft | 475 kts | 50° |
| 2026-05-07 00:27 | 22.71287 | -155.05399 | 35593 ft | 475 kts | 49° |
| 2026-05-07 00:27 | 22.73333 | -155.02594 | 35898 ft | 474 kts | 49° |
| 2026-05-07 00:28 | 22.75378 | -154.99789 | 36204 ft | 474 kts | 49° |
| 2026-05-07 00:28 | 22.77423 | -154.96986 | 36489 ft | 474 kts | 49° |
| 2026-05-07 00:28 | 22.79443 | -154.94219 | 36751 ft | 475 kts | 49° |
| 2026-05-07 00:28 | 22.81491 | -154.91414 | 36996 ft | 475 kts | 49° |
| 2026-05-07 00:29 | 22.85605 | -154.85772 | 37066 ft | 478 kts | 49° |
| 2026-05-07 00:30 | 22.93824 | -154.74437 | 37067 ft | 477 kts | 49° |
| 2026-05-07 00:30 | 22.97937 | -154.68777 | 37071 ft | 477 kts | 49° |
| 2026-05-07 00:31 | 23.01973 | -154.63055 | 37066 ft | 478 kts | 52° |
| 2026-05-07 00:31 | 23.05675 | -154.57040 | 37063 ft | 479 kts | 55° |
| 2026-05-07 00:32 | 23.09235 | -154.50922 | 37062 ft | 479 kts | 55° |
| 2026-05-07 00:32 | 23.12849 | -154.44847 | 37065 ft | 478 kts | 54° |
| 2026-05-07 00:33 | 23.16510 | -154.38870 | 37060 ft | 478 kts | 54° |
| 2026-05-07 00:33 | 23.20207 | -154.32845 | 37063 ft | 479 kts | 54° |
| 2026-05-07 00:34 | 23.23875 | -154.26800 | 37057 ft | 480 kts | 54° |
| 2026-05-07 00:34 | 23.27537 | -154.20732 | 37064 ft | 480 kts | 54° |
| 2026-05-07 00:35 | 23.31200 | -154.14668 | 37066 ft | 480 kts | 54° |
| 2026-05-07 00:35 | 23.34875 | -154.08598 | 37053 ft | 480 kts | 54° |
| 2026-05-07 00:36 | 23.38542 | -154.02534 | 37069 ft | 480 kts | 54° |
| 2026-05-07 00:36 | 23.42201 | -153.96452 | 37066 ft | 480 kts | 54° |
| 2026-05-07 00:37 | 23.45862 | -153.90372 | 37066 ft | 480 kts | 54° |
| 2026-05-07 00:37 | 23.49529 | -153.84298 | 37065 ft | 480 kts | 54° |
| 2026-05-07 00:38 | 23.53190 | -153.78216 | 37065 ft | 480 kts | 54° |
| 2026-05-07 00:38 | 23.56828 | -153.72154 | 37070 ft | 480 kts | 54° |
| 2026-05-07 00:39 | 23.60475 | -153.66060 | 37066 ft | 480 kts | 54° |
| 2026-05-07 00:39 | 23.64114 | -153.59970 | 37072 ft | 479 kts | 54° |
| 2026-05-07 00:40 | 23.67741 | -153.53899 | 37074 ft | 479 kts | 54° |
| 2026-05-07 00:40 | 23.71381 | -153.47812 | 37066 ft | 479 kts | 54° |
| 2026-05-07 00:41 | 23.74997 | -153.41758 | 37063 ft | 479 kts | 54° |
| 2026-05-07 00:41 | 23.78626 | -153.35656 | 37060 ft | 480 kts | 54° |
| 2026-05-07 00:42 | 23.82274 | -153.29567 | 37080 ft | 479 kts | 54° |
| 2026-05-07 00:42 | 23.85930 | -153.23471 | 37073 ft | 479 kts | 54° |
| 2026-05-07 00:43 | 23.89570 | -153.17380 | 37071 ft | 479 kts | 54° |
| 2026-05-07 00:43 | 23.91388 | -153.14329 | 38128 ft | 477 kts | 56° |
| 2026-05-07 00:43 | 23.93178 | -153.11325 | 38126 ft | 467 kts | 57° |
| 2026-05-07 00:44 | 23.96695 | -153.05422 | 38126 ft | 461 kts | 57° |
| 2026-05-07 00:44 | 23.99638 | -153.00470 | 37647 ft | 482 kts | 60° |
| 2026-05-07 00:45 | 24.01495 | -152.97330 | 37219 ft | 501 kts | 60° |
| 2026-05-07 00:45 | 24.03419 | -152.94076 | 36964 ft | 516 kts | 60° |
| 2026-05-07 00:45 | 24.07376 | -152.87408 | 37018 ft | 530 kts | 62° |
| 2026-05-07 00:46 | 24.11456 | -152.80540 | 37013 ft | 546 kts | 61° |
| 2026-05-07 00:46 | 24.15656 | -152.73455 | 37010 ft | 563 kts | 61° |
| 2026-05-07 00:47 | 24.19971 | -152.66169 | 37010 ft | 578 kts | 61° |
| 2026-05-07 00:47 | 24.24403 | -152.58674 | 37010 ft | 593 kts | 61° |
| 2026-05-07 00:48 | 24.28920 | -152.51009 | 37009 ft | 602 kts | 61° |
| 2026-05-07 00:48 | 24.33464 | -152.43277 | 37009 ft | 604 kts | 61° |
| 2026-05-07 00:49 | 24.38013 | -152.35542 | 37009 ft | 604 kts | 61° |
| 2026-05-07 00:49 | 24.42569 | -152.27788 | 37009 ft | 604 kts | 61° |
| 2026-05-07 00:50 | 24.47115 | -152.20035 | 37010 ft | 604 kts | 61° |
| 2026-05-07 00:50 | 24.51659 | -152.12268 | 37012 ft | 604 kts | 61° |
| 2026-05-07 00:51 | 24.56193 | -152.04491 | 37016 ft | 605 kts | 61° |
| 2026-05-07 00:51 | 24.60731 | -151.96711 | 37018 ft | 605 kts | 61° |
| 2026-05-07 00:52 | 24.65269 | -151.88918 | 37018 ft | 605 kts | 61° |
| 2026-05-07 00:52 | 24.69791 | -151.81127 | 37017 ft | 604 kts | 62° |
| 2026-05-07 00:53 | 24.74315 | -151.73334 | 37015 ft | 604 kts | 62° |
| 2026-05-07 00:53 | 24.78832 | -151.65531 | 37014 ft | 604 kts | 62° |
| 2026-05-07 00:54 | 24.83344 | -151.57728 | 37013 ft | 604 kts | 62° |
| 2026-05-07 00:54 | 24.87851 | -151.49920 | 37014 ft | 604 kts | 62° |
| 2026-05-07 00:55 | 24.92351 | -151.42109 | 37013 ft | 604 kts | 62° |
| 2026-05-07 00:55 | 24.96859 | -151.34288 | 37013 ft | 604 kts | 62° |
| 2026-05-07 00:56 | 25.01358 | -151.26468 | 37014 ft | 604 kts | 62° |
| 2026-05-07 00:56 | 25.05823 | -151.18692 | 37013 ft | 604 kts | 62° |
| 2026-05-07 00:57 | 25.10305 | -151.10853 | 37012 ft | 604 kts | 62° |
| 2026-05-07 00:57 | 25.14802 | -151.02967 | 37009 ft | 604 kts | 62° |
| 2026-05-07 00:58 | 25.19253 | -150.95178 | 37007 ft | 604 kts | 62° |
| 2026-05-07 00:58 | 25.23731 | -150.87339 | 37006 ft | 604 kts | 62° |
| 2026-05-07 00:59 | 25.30425 | -150.75550 | 37009 ft | 604 kts | 62° |
| 2026-05-07 01:00 | 25.34884 | -150.67682 | 37011 ft | 604 kts | 62° |
| 2026-05-07 01:00 | 25.39341 | -150.59814 | 37011 ft | 604 kts | 62° |
| 2026-05-07 01:01 | 25.43793 | -150.51929 | 37010 ft | 604 kts | 62° |
| 2026-05-07 01:01 | 25.48237 | -150.44059 | 37008 ft | 603 kts | 62° |
| 2026-05-07 01:02 | 25.52677 | -150.36178 | 37007 ft | 603 kts | 62° |
| 2026-05-07 01:02 | 25.57117 | -150.28285 | 37007 ft | 603 kts | 62° |
| 2026-05-07 01:03 | 25.61558 | -150.20394 | 37008 ft | 604 kts | 62° |
| 2026-05-07 01:03 | 25.66001 | -150.12500 | 37009 ft | 604 kts | 62° |
| 2026-05-07 01:04 | 25.70429 | -150.04589 | 37011 ft | 604 kts | 63° |
| 2026-05-07 01:04 | 25.74838 | -149.96673 | 37013 ft | 604 kts | 63° |
| 2026-05-07 01:05 | 25.79264 | -149.88740 | 37014 ft | 604 kts | 62° |
| 2026-05-07 01:05 | 25.83683 | -149.80815 | 37014 ft | 604 kts | 62° |
| 2026-05-07 01:06 | 25.88094 | -149.72884 | 37014 ft | 604 kts | 63° |
| 2026-05-07 01:06 | 25.92467 | -149.64996 | 37013 ft | 603 kts | 63° |
| 2026-05-07 01:07 | 25.96862 | -149.57063 | 37012 ft | 603 kts | 63° |
| 2026-05-07 01:07 | 26.01253 | -149.49116 | 37010 ft | 603 kts | 63° |
| 2026-05-07 01:08 | 26.05647 | -149.41165 | 37008 ft | 603 kts | 63° |
| 2026-05-07 01:08 | 26.10030 | -149.33208 | 37007 ft | 603 kts | 63° |
| 2026-05-07 01:09 | 26.14414 | -149.25255 | 37007 ft | 603 kts | 63° |
| 2026-05-07 01:09 | 26.18796 | -149.17281 | 37007 ft | 603 kts | 63° |
| 2026-05-07 01:10 | 26.23169 | -149.09304 | 37010 ft | 603 kts | 63° |
| 2026-05-07 01:10 | 26.27540 | -149.01322 | 37012 ft | 603 kts | 63° |
| 2026-05-07 01:11 | 26.31906 | -148.93330 | 37011 ft | 603 kts | 63° |
| 2026-05-07 01:11 | 26.36256 | -148.85336 | 37012 ft | 603 kts | 63° |
| 2026-05-07 01:12 | 26.40615 | -148.77337 | 37013 ft | 603 kts | 63° |
| 2026-05-07 01:12 | 26.44942 | -148.69390 | 37014 ft | 603 kts | 63° |
| 2026-05-07 01:13 | 26.49295 | -148.61383 | 37014 ft | 603 kts | 63° |
| 2026-05-07 01:13 | 26.53626 | -148.53361 | 37014 ft | 603 kts | 63° |
| 2026-05-07 01:14 | 26.57958 | -148.45336 | 37013 ft | 603 kts | 63° |
| 2026-05-07 01:14 | 26.62293 | -148.37320 | 37009 ft | 603 kts | 63° |
| 2026-05-07 01:15 | 26.66617 | -148.29287 | 37005 ft | 602 kts | 63° |
| 2026-05-07 01:15 | 26.70932 | -148.21255 | 37003 ft | 602 kts | 63° |
| 2026-05-07 01:16 | 26.75249 | -148.13225 | 37003 ft | 603 kts | 63° |
| 2026-05-07 01:16 | 26.79564 | -148.05186 | 37005 ft | 603 kts | 64° |
| 2026-05-07 01:17 | 26.83861 | -147.97127 | 37006 ft | 603 kts | 64° |
| 2026-05-07 01:17 | 26.88133 | -147.89104 | 37006 ft | 603 kts | 64° |
| 2026-05-07 01:18 | 26.92434 | -147.81045 | 37007 ft | 603 kts | 63° |
| 2026-05-07 01:18 | 26.96741 | -147.72982 | 37007 ft | 603 kts | 64° |
| 2026-05-07 01:19 | 27.01028 | -147.64904 | 37008 ft | 603 kts | 64° |
| 2026-05-07 01:19 | 27.05300 | -147.56820 | 37008 ft | 602 kts | 64° |
| 2026-05-07 01:20 | 27.09543 | -147.48784 | 37008 ft | 603 kts | 64° |
| 2026-05-07 01:20 | 27.13814 | -147.40695 | 37008 ft | 603 kts | 64° |
| 2026-05-07 01:21 | 27.18087 | -147.32599 | 37007 ft | 602 kts | 64° |
| 2026-05-07 01:21 | 27.22351 | -147.24493 | 37007 ft | 602 kts | 64° |
| 2026-05-07 01:22 | 27.26609 | -147.16381 | 37008 ft | 602 kts | 64° |
| 2026-05-07 01:22 | 27.30858 | -147.08272 | 37007 ft | 602 kts | 64° |
| 2026-05-07 01:23 | 27.35121 | -147.00145 | 37007 ft | 602 kts | 64° |
| 2026-05-07 01:23 | 27.39357 | -146.92019 | 37007 ft | 602 kts | 64° |
| 2026-05-07 01:24 | 27.43588 | -146.83889 | 37007 ft | 602 kts | 64° |
| 2026-05-07 01:24 | 27.47822 | -146.75752 | 37007 ft | 602 kts | 64° |
| 2026-05-07 01:25 | 27.52049 | -146.67609 | 37007 ft | 602 kts | 64° |
| 2026-05-07 01:25 | 27.56269 | -146.59459 | 37007 ft | 602 kts | 64° |
| 2026-05-07 01:26 | 27.60489 | -146.51297 | 37007 ft | 602 kts | 64° |
| 2026-05-07 01:26 | 27.64700 | -146.43138 | 37008 ft | 602 kts | 64° |
| 2026-05-07 01:27 | 27.68915 | -146.34973 | 37008 ft | 602 kts | 64° |
| 2026-05-07 01:27 | 27.73125 | -146.26802 | 37008 ft | 602 kts | 65° |
| 2026-05-07 01:28 | 27.77322 | -146.18623 | 37008 ft | 602 kts | 65° |
| 2026-05-07 01:28 | 27.81512 | -146.10432 | 37008 ft | 602 kts | 65° |
| 2026-05-07 01:29 | 27.85699 | -146.02240 | 37008 ft | 602 kts | 65° |
| 2026-05-07 01:29 | 27.89882 | -145.94043 | 37009 ft | 602 kts | 65° |
| 2026-05-07 01:30 | 27.94061 | -145.85831 | 37011 ft | 602 kts | 65° |
| 2026-05-07 01:30 | 27.97525 | -145.79010 | 37012 ft | 602 kts | 65° |
| 2026-05-07 01:31 | 28.02377 | -145.69458 | 37012 ft | 602 kts | 65° |
| 2026-05-07 01:31 | 28.05871 | -145.62572 | 37010 ft | 602 kts | 65° |
| 2026-05-07 01:32 | 28.10032 | -145.54346 | 37009 ft | 602 kts | 65° |
| 2026-05-07 01:32 | 28.14181 | -145.46111 | 37009 ft | 602 kts | 65° |
| 2026-05-07 01:33 | 28.18330 | -145.37874 | 37009 ft | 602 kts | 65° |
| 2026-05-07 01:33 | 28.22473 | -145.29630 | 37009 ft | 602 kts | 65° |
| 2026-05-07 01:34 | 28.26587 | -145.21435 | 37010 ft | 602 kts | 65° |
| 2026-05-07 01:34 | 28.30722 | -145.13177 | 37011 ft | 602 kts | 65° |
| 2026-05-07 01:35 | 28.34820 | -145.04964 | 37012 ft | 602 kts | 65° |
| 2026-05-07 01:35 | 28.38946 | -144.96696 | 37013 ft | 602 kts | 65° |
| 2026-05-07 01:36 | 28.43072 | -144.88417 | 37014 ft | 602 kts | 65° |
| 2026-05-07 01:36 | 28.47180 | -144.80133 | 37015 ft | 602 kts | 65° |
| 2026-05-07 01:37 | 28.51289 | -144.71830 | 37016 ft | 602 kts | 65° |
| 2026-05-07 01:37 | 28.55399 | -144.63532 | 37017 ft | 602 kts | 65° |
| 2026-05-07 01:38 | 28.59507 | -144.55227 | 37018 ft | 602 kts | 66° |
| 2026-05-07 01:38 | 28.63594 | -144.46915 | 37019 ft | 602 kts | 66° |
| 2026-05-07 01:39 | 28.67687 | -144.38589 | 37020 ft | 602 kts | 66° |
| 2026-05-07 01:39 | 28.71780 | -144.30263 | 37020 ft | 602 kts | 66° |
| 2026-05-07 01:40 | 28.75863 | -144.21931 | 37020 ft | 602 kts | 66° |
| 2026-05-07 01:40 | 28.79912 | -144.13653 | 37020 ft | 602 kts | 66° |
| 2026-05-07 01:41 | 28.83984 | -144.05309 | 37019 ft | 602 kts | 66° |
| 2026-05-07 01:41 | 28.88044 | -143.96954 | 37018 ft | 602 kts | 66° |
| 2026-05-07 01:42 | 28.92087 | -143.88601 | 37018 ft | 602 kts | 66° |
| 2026-05-07 01:42 | 28.96130 | -143.80245 | 37017 ft | 602 kts | 66° |
| 2026-05-07 01:43 | 29.00184 | -143.71885 | 37016 ft | 601 kts | 66° |
| 2026-05-07 01:43 | 29.04237 | -143.63523 | 37015 ft | 601 kts | 66° |
| 2026-05-07 01:44 | 29.08277 | -143.55149 | 37014 ft | 601 kts | 66° |
| 2026-05-07 01:44 | 29.12292 | -143.46777 | 37012 ft | 601 kts | 66° |
| 2026-05-07 01:45 | 29.16283 | -143.38433 | 37010 ft | 601 kts | 66° |
| 2026-05-07 01:45 | 29.20297 | -143.30048 | 37010 ft | 601 kts | 66° |
| 2026-05-07 01:46 | 29.24314 | -143.21657 | 37010 ft | 601 kts | 66° |
| 2026-05-07 01:46 | 29.28320 | -143.13267 | 37010 ft | 601 kts | 66° |
| 2026-05-07 01:47 | 29.32322 | -143.04855 | 37009 ft | 601 kts | 66° |
| 2026-05-07 01:47 | 29.36310 | -142.96443 | 37008 ft | 601 kts | 67° |
| 2026-05-07 01:48 | 29.40289 | -142.88025 | 37008 ft | 601 kts | 67° |
| 2026-05-07 01:48 | 29.44277 | -142.79597 | 37008 ft | 601 kts | 67° |
| 2026-05-07 01:49 | 29.48249 | -142.71175 | 37009 ft | 601 kts | 67° |
| 2026-05-07 01:49 | 29.52220 | -142.62741 | 37009 ft | 601 kts | 67° |
| 2026-05-07 01:50 | 29.56198 | -142.54298 | 37010 ft | 601 kts | 67° |
| 2026-05-07 01:50 | 29.60160 | -142.45852 | 37010 ft | 601 kts | 67° |
| 2026-05-07 01:51 | 29.64086 | -142.37446 | 37011 ft | 600 kts | 67° |
| 2026-05-07 01:51 | 29.68030 | -142.28983 | 37011 ft | 601 kts | 67° |
| 2026-05-07 01:52 | 29.71970 | -142.20518 | 37012 ft | 600 kts | 67° |
| 2026-05-07 01:52 | 29.75908 | -142.12045 | 37012 ft | 601 kts | 67° |
| 2026-05-07 01:53 | 29.79847 | -142.03560 | 37013 ft | 600 kts | 67° |
| 2026-05-07 01:53 | 29.83771 | -141.95082 | 37013 ft | 600 kts | 67° |
| 2026-05-07 01:54 | 29.87697 | -141.86582 | 37014 ft | 601 kts | 67° |
| 2026-05-07 01:54 | 29.91617 | -141.78083 | 37014 ft | 600 kts | 68° |
| 2026-05-07 01:55 | 29.95527 | -141.69575 | 37015 ft | 600 kts | 68° |
| 2026-05-07 01:55 | 29.99426 | -141.61065 | 37015 ft | 600 kts | 68° |
| 2026-05-07 01:56 | 30.03330 | -141.52542 | 37015 ft | 600 kts | 68° |
| 2026-05-07 01:56 | 30.07201 | -141.44077 | 37016 ft | 600 kts | 68° |
| 2026-05-07 01:57 | 30.11091 | -141.35548 | 37016 ft | 600 kts | 68° |
| 2026-05-07 01:57 | 30.14969 | -141.27003 | 37016 ft | 600 kts | 68° |
| 2026-05-07 01:58 | 30.18849 | -141.18451 | 37017 ft | 600 kts | 68° |
| 2026-05-07 01:58 | 30.22717 | -141.09905 | 37017 ft | 600 kts | 68° |
| 2026-05-07 01:59 | 30.26596 | -141.01340 | 37018 ft | 600 kts | 68° |
| 2026-05-07 01:59 | 30.30449 | -140.92775 | 37018 ft | 600 kts | 68° |
| 2026-05-07 02:00 | 30.34299 | -140.84203 | 37018 ft | 600 kts | 68° |
| 2026-05-07 02:00 | 30.38154 | -140.75627 | 37018 ft | 600 kts | 68° |
| 2026-05-07 02:01 | 30.41995 | -140.67048 | 37018 ft | 600 kts | 68° |
| 2026-05-07 02:01 | 30.45827 | -140.58446 | 37018 ft | 600 kts | 68° |
| 2026-05-07 02:02 | 30.49647 | -140.49859 | 37018 ft | 600 kts | 68° |
| 2026-05-07 02:02 | 30.53474 | -140.41253 | 37018 ft | 600 kts | 68° |
| 2026-05-07 02:03 | 30.57290 | -140.32642 | 37017 ft | 600 kts | 69° |
| 2026-05-07 02:03 | 30.61096 | -140.24031 | 37017 ft | 600 kts | 69° |
| 2026-05-07 02:04 | 30.64894 | -140.15401 | 37017 ft | 600 kts | 69° |
| 2026-05-07 02:04 | 30.68690 | -140.06780 | 37016 ft | 600 kts | 69° |
| 2026-05-07 02:05 | 30.72483 | -139.98144 | 37016 ft | 600 kts | 69° |
| 2026-05-07 02:05 | 30.76259 | -139.89511 | 37016 ft | 599 kts | 69° |
| 2026-05-07 02:06 | 30.80037 | -139.80861 | 37015 ft | 599 kts | 69° |
| 2026-05-07 02:06 | 30.83788 | -139.72271 | 37015 ft | 599 kts | 69° |
| 2026-05-07 02:07 | 30.87554 | -139.63607 | 37015 ft | 599 kts | 69° |
| 2026-05-07 02:07 | 30.93192 | -139.50619 | 37014 ft | 599 kts | 69° |
| 2026-05-07 02:08 | 30.96946 | -139.41950 | 37013 ft | 599 kts | 69° |
| 2026-05-07 02:08 | 31.00676 | -139.33283 | 37013 ft | 599 kts | 69° |
| 2026-05-07 02:09 | 31.04413 | -139.24594 | 37012 ft | 599 kts | 69° |
| 2026-05-07 02:09 | 31.08144 | -139.15910 | 37012 ft | 599 kts | 69° |
| 2026-05-07 02:10 | 31.11875 | -139.07215 | 37012 ft | 599 kts | 69° |
| 2026-05-07 02:10 | 31.15581 | -138.98519 | 37011 ft | 599 kts | 69° |
| 2026-05-07 02:11 | 31.19290 | -138.89808 | 37010 ft | 599 kts | 69° |
| 2026-05-07 02:11 | 31.23001 | -138.81106 | 37010 ft | 598 kts | 69° |
| 2026-05-07 02:12 | 31.26697 | -138.72392 | 37008 ft | 598 kts | 70° |
| 2026-05-07 02:12 | 31.30375 | -138.63681 | 37005 ft | 598 kts | 70° |
| 2026-05-07 02:13 | 31.34063 | -138.54960 | 37004 ft | 598 kts | 70° |
| 2026-05-07 02:13 | 31.37722 | -138.46290 | 37003 ft | 598 kts | 70° |
| 2026-05-07 02:14 | 31.41395 | -138.37556 | 37003 ft | 598 kts | 70° |
| 2026-05-07 02:14 | 31.45062 | -138.28823 | 37005 ft | 598 kts | 70° |
| 2026-05-07 02:15 | 31.48721 | -138.20069 | 37005 ft | 598 kts | 70° |
| 2026-05-07 02:15 | 31.52373 | -138.11314 | 37005 ft | 598 kts | 70° |
| 2026-05-07 02:16 | 31.56023 | -138.02555 | 37004 ft | 598 kts | 70° |
| 2026-05-07 02:16 | 31.59659 | -137.93791 | 37002 ft | 597 kts | 70° |
| 2026-05-07 02:17 | 31.63293 | -137.85029 | 37002 ft | 598 kts | 70° |
| 2026-05-07 02:17 | 31.66922 | -137.76246 | 37002 ft | 598 kts | 70° |
| 2026-05-07 02:18 | 31.70545 | -137.67458 | 37004 ft | 598 kts | 70° |
| 2026-05-07 02:18 | 31.74159 | -137.58672 | 37006 ft | 598 kts | 70° |
| 2026-05-07 02:19 | 31.77769 | -137.49870 | 37009 ft | 598 kts | 70° |
| 2026-05-07 02:19 | 31.81349 | -137.41118 | 37012 ft | 598 kts | 70° |
| 2026-05-07 02:20 | 31.84956 | -137.32307 | 37013 ft | 598 kts | 70° |
| 2026-05-07 02:20 | 31.87969 | -137.24912 | 37013 ft | 598 kts | 71° |
| 2026-05-07 02:21 | 31.92126 | -137.14652 | 37012 ft | 598 kts | 71° |
| 2026-05-07 02:21 | 31.95699 | -137.05820 | 37012 ft | 598 kts | 71° |
| 2026-05-07 02:22 | 31.99278 | -136.96973 | 37011 ft | 598 kts | 71° |
| 2026-05-07 02:22 | 32.02243 | -136.89623 | 37011 ft | 598 kts | 71° |
| 2026-05-07 02:23 | 32.05794 | -136.80810 | 37011 ft | 597 kts | 71° |
| 2026-05-07 02:23 | 32.09340 | -136.71956 | 37011 ft | 597 kts | 71° |
| 2026-05-07 02:24 | 32.12893 | -136.63092 | 37012 ft | 597 kts | 71° |
| 2026-05-07 02:24 | 32.16439 | -136.54224 | 37012 ft | 597 kts | 71° |
| 2026-05-07 02:25 | 32.19981 | -136.45344 | 37012 ft | 597 kts | 71° |
| 2026-05-07 02:25 | 32.23512 | -136.36476 | 37012 ft | 597 kts | 71° |
| 2026-05-07 02:26 | 32.27035 | -136.27591 | 37011 ft | 597 kts | 71° |
| 2026-05-07 02:26 | 32.30545 | -136.18694 | 37011 ft | 597 kts | 71° |
| 2026-05-07 02:27 | 32.34044 | -136.09794 | 37011 ft | 597 kts | 71° |
| 2026-05-07 02:27 | 32.37529 | -136.00949 | 37011 ft | 597 kts | 71° |
| 2026-05-07 02:28 | 32.41019 | -135.92037 | 37013 ft | 597 kts | 71° |
| 2026-05-07 02:28 | 32.44494 | -135.83164 | 37013 ft | 597 kts | 71° |
| 2026-05-07 02:29 | 32.47986 | -135.74238 | 37014 ft | 597 kts | 72° |
| 2026-05-07 02:29 | 32.51460 | -135.65308 | 37013 ft | 597 kts | 72° |
| 2026-05-07 02:30 | 32.54882 | -135.56490 | 37010 ft | 596 kts | 72° |
| 2026-05-07 02:30 | 32.58346 | -135.47553 | 37006 ft | 596 kts | 72° |
| 2026-05-07 02:31 | 32.61798 | -135.38618 | 37004 ft | 596 kts | 72° |
| 2026-05-07 02:31 | 32.65234 | -135.29679 | 37003 ft | 596 kts | 72° |
| 2026-05-07 02:32 | 32.68677 | -135.20726 | 37004 ft | 596 kts | 72° |
| 2026-05-07 02:32 | 32.72116 | -135.11764 | 37004 ft | 596 kts | 72° |
| 2026-05-07 02:33 | 32.75518 | -135.02863 | 37004 ft | 596 kts | 72° |
| 2026-05-07 02:33 | 32.78934 | -134.93895 | 37004 ft | 596 kts | 72° |
| 2026-05-07 02:34 | 32.82345 | -134.84921 | 37007 ft | 596 kts | 72° |
| 2026-05-07 02:34 | 32.85759 | -134.75930 | 37010 ft | 596 kts | 72° |
| 2026-05-07 02:35 | 32.89165 | -134.66925 | 37012 ft | 596 kts | 72° |
| 2026-05-07 02:35 | 32.92562 | -134.57928 | 37013 ft | 596 kts | 72° |
| 2026-05-07 02:36 | 32.95949 | -134.48917 | 37010 ft | 596 kts | 72° |
| 2026-05-07 02:36 | 32.99326 | -134.39918 | 37006 ft | 595 kts | 72° |
| 2026-05-07 02:37 | 33.02686 | -134.30966 | 37004 ft | 595 kts | 72° |
| 2026-05-07 02:37 | 33.06055 | -134.21948 | 37004 ft | 595 kts | 73° |
| 2026-05-07 02:38 | 33.09386 | -134.12978 | 37005 ft | 595 kts | 73° |
| 2026-05-07 02:38 | 33.12737 | -134.03946 | 37006 ft | 596 kts | 73° |
| 2026-05-07 02:39 | 33.16094 | -133.94908 | 37006 ft | 595 kts | 73° |
| 2026-05-07 02:39 | 33.19432 | -133.85864 | 37006 ft | 595 kts | 73° |
| 2026-05-07 02:40 | 33.22747 | -133.76867 | 37003 ft | 595 kts | 73° |
| 2026-05-07 02:40 | 33.26062 | -133.67817 | 37003 ft | 595 kts | 73° |
| 2026-05-07 02:41 | 33.29370 | -133.58752 | 37006 ft | 595 kts | 73° |
| 2026-05-07 02:41 | 33.32690 | -133.49676 | 37009 ft | 595 kts | 73° |
| 2026-05-07 02:42 | 33.35980 | -133.40650 | 37011 ft | 595 kts | 73° |
| 2026-05-07 02:42 | 33.39292 | -133.31560 | 37013 ft | 595 kts | 73° |
| 2026-05-07 02:43 | 33.42569 | -133.22526 | 37014 ft | 595 kts | 73° |
| 2026-05-07 02:43 | 33.45856 | -133.13436 | 37012 ft | 595 kts | 73° |
| 2026-05-07 02:44 | 33.49134 | -133.04332 | 37011 ft | 595 kts | 73° |
| 2026-05-07 02:44 | 33.52401 | -132.95228 | 37011 ft | 595 kts | 73° |
| 2026-05-07 02:45 | 33.55672 | -132.86115 | 37011 ft | 595 kts | 73° |
| 2026-05-07 02:45 | 33.58929 | -132.76996 | 37012 ft | 595 kts | 74° |
| 2026-05-07 02:46 | 33.62177 | -132.67875 | 37014 ft | 595 kts | 74° |
| 2026-05-07 02:46 | 33.65428 | -132.58733 | 37016 ft | 595 kts | 74° |
| 2026-05-07 02:47 | 33.68670 | -132.49598 | 37017 ft | 595 kts | 74° |
| 2026-05-07 02:47 | 33.71883 | -132.40508 | 37016 ft | 595 kts | 74° |
| 2026-05-07 02:48 | 33.75089 | -132.31402 | 37015 ft | 595 kts | 74° |
| 2026-05-07 02:48 | 33.78313 | -132.22242 | 37015 ft | 595 kts | 74° |
| 2026-05-07 02:49 | 33.81519 | -132.13075 | 37014 ft | 594 kts | 74° |
| 2026-05-07 02:49 | 33.84715 | -132.03910 | 37014 ft | 594 kts | 74° |
| 2026-05-07 02:50 | 33.87914 | -131.94741 | 37013 ft | 594 kts | 74° |
| 2026-05-07 02:50 | 33.91110 | -131.85563 | 37013 ft | 594 kts | 74° |
| 2026-05-07 02:51 | 33.94289 | -131.76377 | 37014 ft | 594 kts | 75° |
| 2026-05-07 02:51 | 33.97457 | -131.67182 | 37015 ft | 594 kts | 75° |
| 2026-05-07 02:52 | 34.00629 | -131.57981 | 37016 ft | 594 kts | 75° |
| 2026-05-07 02:52 | 34.03794 | -131.48778 | 37016 ft | 594 kts | 75° |
| 2026-05-07 02:53 | 34.06920 | -131.39630 | 37015 ft | 594 kts | 75° |
| 2026-05-07 02:53 | 34.10053 | -131.30448 | 37014 ft | 594 kts | 75° |
| 2026-05-07 02:54 | 34.13163 | -131.21300 | 37012 ft | 594 kts | 75° |
| 2026-05-07 02:54 | 34.16294 | -131.12079 | 37011 ft | 594 kts | 75° |
| 2026-05-07 02:55 | 34.19423 | -131.02855 | 37008 ft | 593 kts | 75° |
| 2026-05-07 02:55 | 34.22546 | -130.93615 | 37006 ft | 593 kts | 75° |
| 2026-05-07 02:56 | 34.25629 | -130.84441 | 37005 ft | 593 kts | 75° |
| 2026-05-07 02:56 | 34.28722 | -130.75202 | 37004 ft | 593 kts | 75° |
| 2026-05-07 02:57 | 34.31838 | -130.65903 | 37003 ft | 593 kts | 75° |
| 2026-05-07 02:57 | 34.34901 | -130.56716 | 37002 ft | 593 kts | 75° |
| 2026-05-07 02:58 | 34.37963 | -130.47493 | 37005 ft | 593 kts | 75° |
| 2026-05-07 02:58 | 34.41032 | -130.38217 | 37006 ft | 593 kts | 76° |
| 2026-05-07 02:59 | 34.44098 | -130.28945 | 37006 ft | 593 kts | 76° |
| 2026-05-07 02:59 | 34.47155 | -130.19677 | 37005 ft | 593 kts | 76° |
| 2026-05-07 03:00 | 34.50209 | -130.10386 | 37004 ft | 592 kts | 76° |
| 2026-05-07 03:00 | 34.53250 | -130.01106 | 37003 ft | 592 kts | 76° |
| 2026-05-07 03:01 | 34.56283 | -129.91817 | 37003 ft | 592 kts | 76° |
| 2026-05-07 03:01 | 34.59314 | -129.82526 | 37003 ft | 592 kts | 76° |
| 2026-05-07 03:02 | 34.62322 | -129.73229 | 37004 ft | 592 kts | 76° |
| 2026-05-07 03:02 | 34.65303 | -129.63973 | 37004 ft | 592 kts | 76° |
| 2026-05-07 03:03 | 34.68310 | -129.54668 | 37003 ft | 592 kts | 76° |
| 2026-05-07 03:03 | 34.71315 | -129.45345 | 37004 ft | 592 kts | 76° |
| 2026-05-07 03:04 | 34.74297 | -129.36016 | 37005 ft | 592 kts | 76° |
| 2026-05-07 03:04 | 34.77278 | -129.26675 | 37007 ft | 592 kts | 76° |
| 2026-05-07 03:05 | 34.80256 | -129.17338 | 37007 ft | 592 kts | 76° |
| 2026-05-07 03:05 | 34.83225 | -129.08005 | 37006 ft | 592 kts | 76° |
| 2026-05-07 03:06 | 34.86183 | -128.98650 | 37007 ft | 592 kts | 76° |
| 2026-05-07 03:06 | 34.89133 | -128.89304 | 37006 ft | 591 kts | 77° |
| 2026-05-07 03:07 | 34.92079 | -128.79935 | 37006 ft | 592 kts | 77° |
| 2026-05-07 03:07 | 34.95014 | -128.70572 | 37006 ft | 591 kts | 77° |
| 2026-05-07 03:08 | 34.97943 | -128.61201 | 37006 ft | 591 kts | 77° |
| 2026-05-07 03:08 | 35.00873 | -128.51829 | 37005 ft | 591 kts | 77° |
| 2026-05-07 03:09 | 35.03767 | -128.42511 | 37005 ft | 591 kts | 77° |
| 2026-05-07 03:09 | 35.06660 | -128.33122 | 37004 ft | 591 kts | 77° |
| 2026-05-07 03:10 | 35.09535 | -128.23795 | 37003 ft | 591 kts | 77° |
| 2026-05-07 03:10 | 35.12427 | -128.14403 | 37002 ft | 591 kts | 77° |
| 2026-05-07 03:11 | 35.15310 | -128.05013 | 37002 ft | 591 kts | 77° |
| 2026-05-07 03:11 | 35.18189 | -127.95606 | 37001 ft | 590 kts | 77° |
| 2026-05-07 03:12 | 35.21061 | -127.86211 | 37000 ft | 590 kts | 77° |
| 2026-05-07 03:12 | 35.23913 | -127.76802 | 36999 ft | 590 kts | 77° |
| 2026-05-07 03:13 | 35.26760 | -127.67377 | 36998 ft | 590 kts | 77° |
| 2026-05-07 03:13 | 35.29569 | -127.58058 | 36997 ft | 590 kts | 78° |
| 2026-05-07 03:14 | 35.32396 | -127.48634 | 36997 ft | 590 kts | 78° |
| 2026-05-07 03:15 | 35.36617 | -127.34549 | 36997 ft | 590 kts | 78° |
| 2026-05-07 03:15 | 35.39441 | -127.25118 | 36997 ft | 590 kts | 78° |
| 2026-05-07 03:16 | 35.42240 | -127.15670 | 36997 ft | 590 kts | 78° |
| 2026-05-07 03:16 | 35.45021 | -127.06262 | 36998 ft | 590 kts | 78° |
| 2026-05-07 03:17 | 35.47330 | -126.98446 | 36998 ft | 590 kts | 78° |
| 2026-05-07 03:17 | 35.50121 | -126.88979 | 36999 ft | 590 kts | 78° |
| 2026-05-07 03:18 | 35.52912 | -126.79509 | 37000 ft | 590 kts | 78° |
| 2026-05-07 03:18 | 35.55683 | -126.70038 | 37001 ft | 589 kts | 78° |
| 2026-05-07 03:19 | 35.58423 | -126.60604 | 37002 ft | 589 kts | 78° |
| 2026-05-07 03:19 | 35.61172 | -126.51112 | 37003 ft | 590 kts | 78° |
| 2026-05-07 03:20 | 35.63932 | -126.41620 | 37004 ft | 590 kts | 78° |
| 2026-05-07 03:20 | 35.66675 | -126.32129 | 37005 ft | 589 kts | 78° |
| 2026-05-07 03:21 | 35.69408 | -126.22623 | 37008 ft | 590 kts | 78° |
| 2026-05-07 03:21 | 35.72140 | -126.13103 | 37010 ft | 590 kts | 79° |
| 2026-05-07 03:22 | 35.74978 | -126.03615 | 37009 ft | 593 kts | 75° |
| 2026-05-07 03:22 | 35.78209 | -125.94314 | 37009 ft | 596 kts | 72° |
| 2026-05-07 03:23 | 35.81572 | -125.85043 | 37009 ft | 595 kts | 73° |
| 2026-05-07 03:23 | 35.84836 | -125.75679 | 37009 ft | 594 kts | 74° |
| 2026-05-07 03:24 | 35.87982 | -125.66262 | 37010 ft | 594 kts | 75° |
| 2026-05-07 03:24 | 35.91134 | -125.56838 | 37011 ft | 594 kts | 75° |
| 2026-05-07 03:25 | 35.94324 | -125.47431 | 37011 ft | 594 kts | 74° |
| 2026-05-07 03:25 | 35.97514 | -125.38025 | 37012 ft | 594 kts | 74° |
| 2026-05-07 03:26 | 36.00688 | -125.28594 | 37013 ft | 594 kts | 75° |
| 2026-05-07 03:26 | 36.03838 | -125.19163 | 37014 ft | 594 kts | 75° |
| 2026-05-07 03:27 | 36.06982 | -125.09721 | 37015 ft | 594 kts | 75° |
| 2026-05-07 03:27 | 36.10132 | -125.00269 | 37016 ft | 594 kts | 75° |
| 2026-05-07 03:28 | 36.13271 | -124.90831 | 37016 ft | 594 kts | 75° |
| 2026-05-07 03:28 | 36.16398 | -124.81369 | 37017 ft | 594 kts | 74° |
| 2026-05-07 03:29 | 36.20455 | -124.72420 | 37015 ft | 607 kts | 56° |
| 2026-05-07 03:29 | 36.25679 | -124.64191 | 37015 ft | 608 kts | 53° |
| 2026-05-07 03:30 | 36.30914 | -124.55969 | 37015 ft | 608 kts | 54° |
| 2026-05-07 03:30 | 36.36137 | -124.47715 | 37016 ft | 608 kts | 54° |
| 2026-05-07 03:31 | 36.41349 | -124.39451 | 37016 ft | 608 kts | 54° |
| 2026-05-07 03:31 | 36.46555 | -124.31183 | 37016 ft | 608 kts | 54° |
| 2026-05-07 03:32 | 36.51757 | -124.22909 | 37016 ft | 608 kts | 54° |
| 2026-05-07 03:32 | 36.56964 | -124.14609 | 36982 ft | 607 kts | 54° |
| 2026-05-07 03:32 | 36.59568 | -124.10452 | 35963 ft | 616 kts | 54° |
| 2026-05-07 03:33 | 36.62211 | -124.06216 | 35158 ft | 621 kts | 54° |
| 2026-05-07 03:33 | 36.64850 | -124.01980 | 34583 ft | 617 kts | 54° |
| 2026-05-07 03:33 | 36.67470 | -123.97767 | 33628 ft | 614 kts | 54° |
| 2026-05-07 03:33 | 36.70028 | -123.93653 | 32335 ft | 615 kts | 54° |
| 2026-05-07 03:34 | 36.72656 | -123.89422 | 30910 ft | 618 kts | 54° |
| 2026-05-07 03:34 | 36.75286 | -123.85188 | 29362 ft | 620 kts | 54° |
| 2026-05-07 03:34 | 36.77934 | -123.80925 | 27656 ft | 623 kts | 54° |
| 2026-05-07 03:34 | 36.80591 | -123.76646 | 25780 ft | 625 kts | 54° |
| 2026-05-07 03:35 | 36.83227 | -123.72394 | 23790 ft | 629 kts | 54° |
| 2026-05-07 03:35 | 36.85874 | -123.68109 | 22577 ft | 616 kts | 54° |
| 2026-05-07 03:35 | 36.88386 | -123.64044 | 22203 ft | 586 kts | 54° |
| 2026-05-07 03:35 | 36.90817 | -123.60116 | 22040 ft | 557 kts | 55° |
| 2026-05-07 03:36 | 36.93144 | -123.56340 | 21532 ft | 541 kts | 55° |
| 2026-05-07 03:36 | 36.95390 | -123.52677 | 20796 ft | 533 kts | 55° |
| 2026-05-07 03:36 | 36.97630 | -123.49018 | 20002 ft | 526 kts | 56° |
| 2026-05-07 03:36 | 36.99844 | -123.45400 | 19217 ft | 521 kts | 56° |
| 2026-05-07 03:37 | 37.02020 | -123.41842 | 18573 ft | 521 kts | 56° |
| 2026-05-07 03:37 | 37.04211 | -123.38256 | 18019 ft | 516 kts | 56° |
| 2026-05-07 03:37 | 37.06395 | -123.34680 | 17429 ft | 515 kts | 56° |
| 2026-05-07 03:37 | 37.08563 | -123.31134 | 16911 ft | 510 kts | 56° |
| 2026-05-07 03:38 | 37.10685 | -123.27655 | 16457 ft | 480 kts | 52° |
| 2026-05-07 03:38 | 37.12540 | -123.24610 | 17627 ft | 407 kts | 52° |
| 2026-05-07 03:38 | 37.14177 | -123.21916 | 17591 ft | 374 kts | 52° |
| 2026-05-07 03:38 | 37.15719 | -123.19373 | 16970 ft | 358 kts | 52° |
| 2026-05-07 03:39 | 37.17206 | -123.16919 | 16402 ft | 346 kts | 52° |
| 2026-05-07 03:39 | 37.18544 | -123.14509 | 15934 ft | 332 kts | 59° |
| 2026-05-07 03:39 | 37.19596 | -123.11957 | 15268 ft | 327 kts | 66° |
| 2026-05-07 03:39 | 37.20362 | -123.09297 | 14592 ft | 324 kts | 73° |
| 2026-05-07 03:40 | 37.20995 | -123.06594 | 13908 ft | 321 kts | 74° |
| 2026-05-07 03:40 | 37.21626 | -123.03912 | 13167 ft | 319 kts | 74° |
| 2026-05-07 03:40 | 37.22243 | -123.01291 | 12464 ft | 316 kts | 73° |
| 2026-05-07 03:40 | 37.22870 | -122.98624 | 11829 ft | 312 kts | 73° |
| 2026-05-07 03:41 | 37.23472 | -122.96067 | 11453 ft | 310 kts | 73° |
| 2026-05-07 03:41 | 37.24079 | -122.93478 | 11246 ft | 301 kts | 73° |
| 2026-05-07 03:41 | 37.24469 | -122.91815 | 11011 ft | 299 kts | 73° |
| 2026-05-07 03:41 | 37.24660 | -122.91001 | 10886 ft | 299 kts | 73° |